createdAt,value
2023-02-25T00:02:15.754Z,5.73
2023-02-25T00:04:42.460Z,5.62
2023-02-25T00:07:09.489Z,5.65
2023-02-25T00:09:36.206Z,5.67
2023-02-25T00:12:02.825Z,5.58
2023-02-25T00:14:29.640Z,5.54
2023-02-25T00:16:56.376Z,5.56
2023-02-25T00:19:24.253Z,5.47
2023-02-25T00:21:51.014Z,5.47
2023-02-25T00:24:17.826Z,5.37
2023-02-25T00:26:45.265Z,5.31
2023-02-25T00:29:11.971Z,5.14
2023-02-25T00:31:38.756Z,5.18
2023-02-25T00:34:05.493Z,5.17
2023-02-25T00:36:32.091Z,5.14
2023-02-25T00:38:58.667Z,5.07
2023-02-25T00:41:28.683Z,5.03
2023-02-25T00:43:58.634Z,4.97
2023-02-25T00:46:26.732Z,4.94
2023-02-25T00:48:53.675Z,4.94
2023-02-25T00:51:25.389Z,4.83
2023-02-25T00:53:53.338Z,4.80
2023-02-25T00:56:20.755Z,4.67
2023-02-25T00:58:49.540Z,4.64
2023-02-25T01:01:27.100Z,4.61
2023-02-25T01:03:56.595Z,4.54
2023-02-25T01:06:25.194Z,4.50
2023-02-25T01:08:52.031Z,4.39
2023-02-25T01:11:24.730Z,4.29
2023-02-25T01:13:51.365Z,4.20
2023-02-25T01:16:23.000Z,4.07
2023-02-25T01:18:52.889Z,4.02
2023-02-25T01:21:25.714Z,3.97
2023-02-25T01:23:58.839Z,3.84
2023-02-25T01:26:27.432Z,3.79
2023-02-25T01:28:54.130Z,3.75
2023-02-25T01:31:29.527Z,3.70
2023-02-25T01:34:02.054Z,3.60
2023-02-25T01:36:30.944Z,3.59
2023-02-25T01:38:58.242Z,3.55
2023-02-25T01:41:26.182Z,3.59
2023-02-25T01:44:14.196Z,3.46
2023-02-25T01:46:43.172Z,3.47
2023-02-25T01:49:16.160Z,3.52
2023-02-25T01:51:46.082Z,3.41
2023-02-25T01:54:14.726Z,3.34
2023-02-25T01:56:44.254Z,3.40
2023-02-25T01:59:12.224Z,3.41
2023-02-25T02:01:40.286Z,3.40
2023-02-25T02:04:10.657Z,3.37
2023-02-25T02:06:40.832Z,3.27
2023-02-25T02:09:13.408Z,3.18
2023-02-25T02:11:40.039Z,3.11
2023-02-25T02:14:09.245Z,3.07
2023-02-25T02:16:52.176Z,3.04
2023-02-25T02:19:35.684Z,2.86
2023-02-25T02:22:03.319Z,2.67
2023-02-25T02:24:45.968Z,2.57
2023-02-25T02:27:50.337Z,2.48
2023-02-25T02:30:47.892Z,2.40
2023-02-25T02:33:36.765Z,2.32
2023-02-25T02:36:15.110Z,2.28
2023-02-25T02:39:00.020Z,2.22
2023-02-25T02:41:36.574Z,2.26
2023-02-25T02:44:25.062Z,2.18
2023-02-25T02:46:59.318Z,2.17
2023-02-25T02:49:35.975Z,2.20
2023-02-25T02:52:07.056Z,2.18
2023-02-25T02:54:37.586Z,2.13
2023-02-25T02:57:08.839Z,2.16
2023-02-25T02:59:43.038Z,2.11
2023-02-25T03:02:15.917Z,2.13
2023-02-25T03:04:45.492Z,2.06
2023-02-25T03:07:15.055Z,2.06
2023-02-25T03:09:52.058Z,2.06
2023-02-25T03:12:21.894Z,2.10
2023-02-25T03:14:48.498Z,2.09
2023-02-25T03:17:21.547Z,2.11
2023-02-25T03:19:55.648Z,2.14
2023-02-25T03:22:29.859Z,2.17
2023-02-25T03:24:56.435Z,2.15
2023-02-25T03:27:25.502Z,2.15
2023-02-25T03:29:53.437Z,2.09
2023-02-25T03:32:20.609Z,2.22
2023-02-25T03:34:50.861Z,2.15
2023-02-25T03:37:22.653Z,2.19
2023-02-25T03:39:55.711Z,2.21
2023-02-25T03:42:29.669Z,2.14
2023-02-25T03:45:01.402Z,2.15
2023-02-25T03:47:30.773Z,2.24
2023-02-25T03:50:08.531Z,2.19
2023-02-25T03:52:35.751Z,2.09
2023-02-25T03:55:03.119Z,2.06
2023-02-25T03:57:39.854Z,2.11
2023-02-25T04:00:17.412Z,2.05
2023-02-25T04:02:46.505Z,2.07
2023-02-25T04:05:13.900Z,1.94
2023-02-25T04:07:40.547Z,1.87
2023-02-25T04:10:10.333Z,1.92
2023-02-25T04:12:36.934Z,1.74
2023-02-25T04:15:06.046Z,1.74
2023-02-25T04:17:33.327Z,1.59
2023-02-25T04:19:59.972Z,1.61
2023-02-25T04:22:27.183Z,1.63
2023-02-25T04:24:53.790Z,1.67
2023-02-25T04:27:20.596Z,1.59
2023-02-25T04:29:47.181Z,1.61
2023-02-25T04:32:14.105Z,1.56
2023-02-25T04:34:40.832Z,1.56
2023-02-25T04:37:08.774Z,1.52
2023-02-25T04:39:35.682Z,1.52
2023-02-25T04:42:02.638Z,1.51
2023-02-25T04:44:29.236Z,1.45
2023-02-25T04:46:56.155Z,1.43
2023-02-25T04:49:23.420Z,1.48
2023-02-25T04:51:51.576Z,1.55
2023-02-25T04:54:20.660Z,1.52
2023-02-25T04:56:48.236Z,1.52
2023-02-25T04:59:16.158Z,1.53
2023-02-25T05:01:43.448Z,1.56
2023-02-25T05:04:10.176Z,1.49
2023-02-25T05:06:36.890Z,1.52
2023-02-25T05:09:03.924Z,1.57
2023-02-25T05:11:30.740Z,1.56
2023-02-25T05:13:57.413Z,1.50
2023-02-25T05:16:25.697Z,1.57
2023-02-25T05:18:53.406Z,1.56
2023-02-25T05:21:23.211Z,1.62
2023-02-25T05:23:52.800Z,1.51
2023-02-25T05:26:22.366Z,1.64
2023-02-25T05:28:52.523Z,1.69
2023-02-25T05:31:19.992Z,1.54
2023-02-25T05:33:46.655Z,1.54
2023-02-25T05:36:15.428Z,1.43
2023-02-25T05:38:42.522Z,1.40
2023-02-25T05:41:10.048Z,1.37
2023-02-25T05:43:38.428Z,1.35
2023-02-25T05:46:11.565Z,1.33
2023-02-25T05:48:39.491Z,1.28
2023-02-25T05:51:11.368Z,1.27
2023-02-25T05:53:38.042Z,1.35
2023-02-25T05:56:07.432Z,1.35
2023-02-25T05:58:34.577Z,1.47
2023-02-25T06:01:10.679Z,1.42
2023-02-25T06:03:39.074Z,1.46
2023-02-25T06:06:07.081Z,1.37
2023-02-25T06:08:34.416Z,1.39
2023-02-25T06:11:02.150Z,1.49
2023-02-25T06:13:28.856Z,1.50
2023-02-25T06:15:55.478Z,1.42
2023-02-25T06:18:22.103Z,1.42
2023-02-25T06:20:48.854Z,1.41
2023-02-25T06:23:15.675Z,1.40
2023-02-25T06:25:42.255Z,1.47
2023-02-25T06:28:08.895Z,1.47
2023-02-25T06:30:35.554Z,1.46
2023-02-25T06:33:02.239Z,1.43
2023-02-25T06:35:28.823Z,1.45
2023-02-25T06:37:56.619Z,1.49
2023-02-25T06:40:23.396Z,1.43
2023-02-25T06:42:50.010Z,1.41
2023-02-25T06:45:16.759Z,1.39
2023-02-25T06:47:43.445Z,1.38
2023-02-25T06:50:11.104Z,1.37
2023-02-25T06:52:37.872Z,1.38
2023-02-25T06:55:06.789Z,1.39
2023-02-25T06:57:34.190Z,1.32
2023-02-25T07:00:00.826Z,1.37
2023-02-25T07:02:27.735Z,1.40
2023-02-25T07:04:54.986Z,1.53
2023-02-25T07:07:22.333Z,1.54
2023-02-25T07:09:49.071Z,1.57
2023-02-25T07:12:15.663Z,1.58
2023-02-25T07:14:45.868Z,1.59
2023-02-25T07:17:12.462Z,1.58
2023-02-25T07:19:39.076Z,1.59
2023-02-25T07:22:05.669Z,1.69
2023-02-25T07:24:32.305Z,1.70
2023-02-25T07:26:58.902Z,1.66
2023-02-25T07:29:25.502Z,1.64
2023-02-25T07:31:52.326Z,1.71
2023-02-25T07:34:19.193Z,1.79
2023-02-25T07:36:45.804Z,1.86
2023-02-25T07:39:12.590Z,1.96
2023-02-25T07:41:39.189Z,2.02
2023-02-25T07:44:06.445Z,2.14
2023-02-25T07:46:33.811Z,2.27
2023-02-25T07:49:00.472Z,2.34
2023-02-25T07:51:28.069Z,2.45
2023-02-25T07:53:57.478Z,2.61
2023-02-25T07:56:26.348Z,2.62
2023-02-25T07:58:53.081Z,2.66
2023-02-25T08:01:31.585Z,2.77
2023-02-25T08:04:00.636Z,2.84
2023-02-25T08:06:28.011Z,2.89
2023-02-25T08:08:55.513Z,2.94
2023-02-25T08:11:24.758Z,2.98
2023-02-25T08:13:51.835Z,3.08
2023-02-25T08:16:20.536Z,3.22
2023-02-25T08:18:48.052Z,3.29
2023-02-25T08:21:18.742Z,3.34
2023-02-25T08:23:45.343Z,3.32
2023-02-25T08:26:12.086Z,3.41
2023-02-25T08:28:39.652Z,3.54
2023-02-25T08:31:11.368Z,3.57
2023-02-25T08:33:40.003Z,3.59
2023-02-25T08:36:09.676Z,3.64
2023-02-25T08:38:37.928Z,3.71
2023-02-25T08:41:06.110Z,3.70
2023-02-25T08:43:33.247Z,3.62
2023-02-25T08:46:01.283Z,3.65
2023-02-25T08:48:28.194Z,3.66
2023-02-25T08:50:55.659Z,3.73
2023-02-25T08:53:23.400Z,3.82
2023-02-25T08:55:51.079Z,3.87
2023-02-25T08:58:17.645Z,4.05
2023-02-25T09:00:44.254Z,4.21
2023-02-25T09:03:10.837Z,4.26
2023-02-25T09:05:38.116Z,4.28
2023-02-25T09:08:05.019Z,4.32
2023-02-25T09:10:48.373Z,4.32
2023-02-25T09:13:17.356Z,4.30
2023-02-25T09:15:44.011Z,4.40
2023-02-25T09:18:11.844Z,4.39
2023-02-25T09:20:39.013Z,4.29
2023-02-25T09:23:05.693Z,4.23
2023-02-25T09:25:32.329Z,4.15
2023-02-25T09:27:58.925Z,4.25
2023-02-25T09:30:26.516Z,4.27
2023-02-25T09:32:53.402Z,4.29
2023-02-25T09:35:20.184Z,4.26
2023-02-25T09:37:46.799Z,4.18
2023-02-25T09:40:18.792Z,4.24
2023-02-25T09:43:07.378Z,4.16
2023-02-25T09:45:34.777Z,4.14
2023-02-25T09:48:10.634Z,4.03
2023-02-25T09:50:43.382Z,4.03
2023-02-25T09:53:15.790Z,4.10
2023-02-25T09:55:47.953Z,4.07
2023-02-25T09:58:22.138Z,3.96
2023-02-25T10:00:58.407Z,3.87
2023-02-25T10:03:41.183Z,3.90
2023-02-25T10:06:27.965Z,3.85
2023-02-25T10:09:00.121Z,3.86
2023-02-25T10:11:47.673Z,3.81
2023-02-25T10:14:20.672Z,3.77
2023-02-25T10:17:03.104Z,3.75
2023-02-25T10:19:38.695Z,3.72
2023-02-25T10:22:30.936Z,3.72
2023-02-25T10:25:05.358Z,3.73
2023-02-25T10:27:39.611Z,3.74
2023-02-25T10:30:14.405Z,3.77
2023-02-25T10:32:43.561Z,3.79
2023-02-25T10:35:23.858Z,3.76
2023-02-25T10:37:50.501Z,3.82
2023-02-25T10:40:21.596Z,3.78
2023-02-25T10:42:51.423Z,3.82
2023-02-25T10:45:25.179Z,3.83
2023-02-25T10:48:03.917Z,3.86
2023-02-25T10:50:44.834Z,3.90
2023-02-25T10:53:17.504Z,3.88
2023-02-25T10:55:44.079Z,3.89
2023-02-25T10:58:31.853Z,3.89
2023-02-25T11:00:59.979Z,3.90
2023-02-25T11:03:30.379Z,3.88
2023-02-25T11:06:23.388Z,3.87
2023-02-25T11:08:52.450Z,3.83
2023-02-25T11:11:24.346Z,3.78
2023-02-25T11:13:55.911Z,3.85
2023-02-25T11:16:27.244Z,3.86
2023-02-25T11:19:00.118Z,3.88
2023-02-25T11:21:32.655Z,3.86
2023-02-25T11:24:02.781Z,3.86
2023-02-25T11:26:33.689Z,3.90
2023-02-25T11:29:13.977Z,3.88
2023-02-25T11:31:43.224Z,3.86
2023-02-25T11:34:28.693Z,3.86
2023-02-25T11:36:55.320Z,3.87
2023-02-25T11:39:26.375Z,3.86
2023-02-25T11:41:55.645Z,3.89
2023-02-25T11:44:31.720Z,3.94
2023-02-25T11:47:03.166Z,3.93
2023-02-25T11:50:00.338Z,3.97
2023-02-25T11:52:35.987Z,3.96
2023-02-25T11:55:19.277Z,3.94
2023-02-25T11:58:16.468Z,3.94
2023-02-25T12:01:00.688Z,3.99
2023-02-25T12:04:02.435Z,3.99
2023-02-25T12:06:48.742Z,4.05
2023-02-25T12:09:45.860Z,4.00
2023-02-25T12:12:28.776Z,4.00
2023-02-25T12:15:24.123Z,4.07
2023-02-25T12:18:21.124Z,4.04
2023-02-25T12:21:08.976Z,4.12
2023-02-25T12:24:10.705Z,4.07
2023-02-25T12:26:53.552Z,4.10
2023-02-25T12:29:40.036Z,4.11
2023-02-25T12:32:22.829Z,4.22
2023-02-25T12:35:23.919Z,4.27
2023-02-25T12:38:12.292Z,4.25
2023-02-25T12:40:59.528Z,4.18
2023-02-25T12:43:47.736Z,4.25
2023-02-25T12:46:31.635Z,4.30
2023-02-25T12:49:28.681Z,4.33
2023-02-25T12:52:18.003Z,4.44
2023-02-25T12:54:59.873Z,4.31
2023-02-25T12:57:34.362Z,4.08
2023-02-25T13:00:16.897Z,3.72
2023-02-25T13:03:15.556Z,3.76
2023-02-25T13:06:20.885Z,3.57
2023-02-25T13:08:59.363Z,3.49
2023-02-25T13:12:10.089Z,3.33
2023-02-25T13:14:46.814Z,3.17
2023-02-25T13:17:39.802Z,3.23
2023-02-25T13:20:21.637Z,3.23
2023-02-25T13:23:03.452Z,3.25
2023-02-25T13:25:46.260Z,3.27
2023-02-25T13:28:29.045Z,3.23
2023-02-25T13:31:05.716Z,3.11
2023-02-25T13:33:53.370Z,3.01
2023-02-25T13:36:36.374Z,2.73
2023-02-25T13:39:33.347Z,2.62
2023-02-25T13:42:30.545Z,2.59
2023-02-25T13:45:27.693Z,2.59
2023-02-25T13:48:24.567Z,2.70
2023-02-25T13:50:51.219Z,2.75
2023-02-25T13:53:36.310Z,2.73
2023-02-25T13:56:26.814Z,2.83
2023-02-25T13:59:21.829Z,2.90
2023-02-25T14:01:59.515Z,3.00
2023-02-25T14:04:44.637Z,3.08
2023-02-25T14:07:23.594Z,3.12
2023-02-25T14:10:00.725Z,3.18
2023-02-25T14:12:44.372Z,3.25
2023-02-25T14:15:28.885Z,3.34
2023-02-25T14:18:03.775Z,3.41
2023-02-25T14:20:32.476Z,3.54
2023-02-25T14:23:07.760Z,3.57
2023-02-25T14:25:42.422Z,3.66
2023-02-25T14:28:35.227Z,3.72
2023-02-25T14:31:01.882Z,3.68
2023-02-25T14:33:52.612Z,3.70
2023-02-25T14:36:50.875Z,3.74
2023-02-25T14:39:47.979Z,3.81
2023-02-25T14:42:36.535Z,3.77
2023-02-25T14:45:31.778Z,3.91
2023-02-25T14:48:06.196Z,3.94
2023-02-25T14:51:03.527Z,3.99
2023-02-25T14:53:54.982Z,4.06
2023-02-25T14:56:52.090Z,4.08
2023-02-25T14:59:33.933Z,4.03
2023-02-25T15:02:15.859Z,4.02
2023-02-25T15:04:56.420Z,3.95
2023-02-25T15:07:45.509Z,3.94
2023-02-25T15:10:29.936Z,3.83
2023-02-25T15:13:29.824Z,3.88
2023-02-25T15:16:32.372Z,3.81
2023-02-25T15:19:19.528Z,3.84
2023-02-25T15:21:49.198Z,3.77
2023-02-25T15:24:39.725Z,3.81
2023-02-25T15:27:36.869Z,3.87
2023-02-25T15:30:06.873Z,3.84
2023-02-25T15:32:49.871Z,3.86
2023-02-25T15:35:23.367Z,3.76
2023-02-25T15:37:49.957Z,3.67
2023-02-25T15:40:16.536Z,3.57
2023-02-25T15:42:46.871Z,3.52
2023-02-25T15:45:28.980Z,3.43
2023-02-25T15:48:11.054Z,3.45
2023-02-25T15:50:53.293Z,3.49
2023-02-25T15:53:23.313Z,3.47
2023-02-25T15:55:52.030Z,3.46
2023-02-25T15:58:43.014Z,3.38
2023-02-25T16:01:28.471Z,3.30
2023-02-25T16:03:55.494Z,3.30
2023-02-25T16:06:33.118Z,3.29
2023-02-25T16:09:00.786Z,3.20
2023-02-25T16:11:49.510Z,3.11
2023-02-25T16:14:22.869Z,3.08
2023-02-25T16:16:57.426Z,3.05
2023-02-25T16:19:28.704Z,2.99
2023-02-25T16:22:00.586Z,2.95
2023-02-25T16:24:28.120Z,2.89
2023-02-25T16:27:06.423Z,2.87
2023-02-25T16:29:55.736Z,2.81
2023-02-25T16:32:29.372Z,2.81
2023-02-25T16:35:12.677Z,2.75
2023-02-25T16:38:00.704Z,2.72
2023-02-25T16:40:31.780Z,2.74
2023-02-25T16:42:59.138Z,2.71
2023-02-25T16:45:33.455Z,2.70
2023-02-25T16:48:06.182Z,2.70
2023-02-25T16:50:35.086Z,2.69
2023-02-25T16:53:04.050Z,2.55
2023-02-25T16:55:39.016Z,2.61
2023-02-25T16:58:22.809Z,2.62
2023-02-25T17:01:00.000Z,2.66
2023-02-25T17:03:33.068Z,2.72
2023-02-25T17:06:14.531Z,2.70
2023-02-25T17:08:45.362Z,2.73
2023-02-25T17:11:17.444Z,2.66
2023-02-25T17:13:45.420Z,2.35
2023-02-25T17:16:28.366Z,2.12
2023-02-25T17:18:58.762Z,2.13
2023-02-25T17:21:29.718Z,2.02
2023-02-25T17:23:58.434Z,1.99
2023-02-25T17:26:25.491Z,1.83
2023-02-25T17:28:55.964Z,1.70
2023-02-25T17:31:26.958Z,1.53
2023-02-25T17:33:57.610Z,1.46
2023-02-25T17:36:27.788Z,1.44
2023-02-25T17:38:58.836Z,1.42
2023-02-25T17:41:25.934Z,1.31
2023-02-25T17:43:52.958Z,1.25
2023-02-25T17:46:31.248Z,1.25
2023-02-25T17:49:02.551Z,1.27
2023-02-25T17:51:33.563Z,1.20
2023-02-25T17:54:07.607Z,1.14
2023-02-25T17:56:35.720Z,1.20
2023-02-25T17:59:35.623Z,1.16
2023-02-25T18:02:03.815Z,1.14
2023-02-25T18:04:40.621Z,1.07
2023-02-25T18:07:38.146Z,1.10
2023-02-25T18:10:05.253Z,1.03
2023-02-25T18:12:35.233Z,1.04
2023-02-25T18:15:02.862Z,0.98
2023-02-25T18:17:33.982Z,1.00
2023-02-25T18:20:05.384Z,1.00
2023-02-25T18:22:37.644Z,1.08
2023-02-25T18:25:08.328Z,1.03
2023-02-25T18:27:37.808Z,1.02
2023-02-25T18:30:18.769Z,1.07
2023-02-25T18:32:46.125Z,1.02
2023-02-25T18:35:12.774Z,0.99
2023-02-25T18:37:40.136Z,0.94
2023-02-25T18:40:07.910Z,0.96
2023-02-25T18:42:34.535Z,0.97
2023-02-25T18:45:01.256Z,1.00
2023-02-25T18:47:29.896Z,0.93
2023-02-25T18:49:56.617Z,0.98
2023-02-25T18:52:25.218Z,0.97
2023-02-25T18:54:51.905Z,0.93
2023-02-25T18:57:23.084Z,0.92
2023-02-25T18:59:51.032Z,0.98
2023-02-25T19:02:34.966Z,0.97
2023-02-25T19:05:02.943Z,0.97
2023-02-25T19:07:34.113Z,0.87
2023-02-25T19:10:05.897Z,0.92
2023-02-25T19:12:34.610Z,1.00
2023-02-25T19:15:06.506Z,0.97
2023-02-25T19:17:36.845Z,0.86
2023-02-25T19:20:07.326Z,0.85
2023-02-25T19:22:34.090Z,0.80
2023-02-25T19:25:00.738Z,0.77
2023-02-25T19:27:29.098Z,0.72
2023-02-25T19:29:58.150Z,0.68
2023-02-25T19:32:26.103Z,0.68
2023-02-25T19:34:52.735Z,0.70
2023-02-25T19:37:20.774Z,0.73
2023-02-25T19:39:47.726Z,0.64
2023-02-25T19:42:15.531Z,0.68
2023-02-25T19:44:42.161Z,0.62
2023-02-25T19:47:08.752Z,0.62
2023-02-25T19:49:35.457Z,0.60
2023-02-25T19:52:02.084Z,0.64
2023-02-25T19:54:28.711Z,0.66
2023-02-25T19:56:55.326Z,0.63
2023-02-25T19:59:21.912Z,0.57
2023-02-25T20:01:49.660Z,0.61
2023-02-25T20:04:16.664Z,0.62
2023-02-25T20:06:43.406Z,0.64
2023-02-25T20:09:12.686Z,0.60
2023-02-25T20:11:39.591Z,0.56
2023-02-25T20:14:07.117Z,0.50
2023-02-25T20:16:34.628Z,0.57
2023-02-25T20:19:01.484Z,0.49
2023-02-25T20:21:28.296Z,0.53
2023-02-25T20:23:58.216Z,0.48
2023-02-25T20:26:28.537Z,0.59
2023-02-25T20:28:56.025Z,0.52
2023-02-25T20:31:23.918Z,0.65
2023-02-25T20:33:53.427Z,0.59
2023-02-25T20:36:23.139Z,0.66
2023-02-25T20:39:13.227Z,0.59
2023-02-25T20:41:40.839Z,0.56
2023-02-25T20:44:08.335Z,0.52
2023-02-25T20:46:35.800Z,0.49
2023-02-25T20:49:03.927Z,0.54
2023-02-25T20:51:31.057Z,0.49
2023-02-25T20:53:58.036Z,0.45
2023-02-25T20:56:26.968Z,0.42
2023-02-25T20:58:54.840Z,0.44
2023-02-25T21:01:22.114Z,0.57
2023-02-25T21:03:48.896Z,0.58
2023-02-25T21:06:16.520Z,0.45
2023-02-25T21:08:43.261Z,0.41
2023-02-25T21:11:09.853Z,0.40
2023-02-25T21:13:36.536Z,0.51
2023-02-25T21:16:06.107Z,0.46
2023-02-25T21:18:33.782Z,0.43
2023-02-25T21:21:03.922Z,0.47
2023-02-25T21:23:31.110Z,0.44
2023-02-25T21:25:58.335Z,0.47
2023-02-25T21:28:25.044Z,0.42
2023-02-25T21:30:52.476Z,0.41
2023-02-25T21:33:19.146Z,0.46
2023-02-25T21:35:52.109Z,0.41
2023-02-25T21:38:19.545Z,0.47
2023-02-25T21:40:47.159Z,0.42
2023-02-25T21:43:14.899Z,0.38
2023-02-25T21:45:52.216Z,0.35
2023-02-25T21:48:19.489Z,0.37
2023-02-25T21:50:46.392Z,0.35
2023-02-25T21:53:13.276Z,0.37
2023-02-25T21:55:40.106Z,0.43
2023-02-25T21:58:06.710Z,0.38
2023-02-25T22:00:33.346Z,0.40
2023-02-25T22:03:00.434Z,0.34
2023-02-25T22:05:27.347Z,0.31
2023-02-25T22:07:53.928Z,0.32
2023-02-25T22:10:21.401Z,0.36
2023-02-25T22:12:48.817Z,0.32
2023-02-25T22:15:15.443Z,0.38
2023-02-25T22:17:42.349Z,0.44
2023-02-25T22:20:09.800Z,0.44
2023-02-25T22:22:37.250Z,0.51
2023-02-25T22:25:05.401Z,0.45
2023-02-25T22:27:32.150Z,0.46
2023-02-25T22:29:58.817Z,0.45
2023-02-25T22:32:25.999Z,0.48
2023-02-25T22:34:52.648Z,0.47
2023-02-25T22:37:19.270Z,0.41
2023-02-25T22:39:45.922Z,0.46
2023-02-25T22:42:12.594Z,0.41
2023-02-25T22:44:39.290Z,0.39
2023-02-25T22:47:05.937Z,0.42
2023-02-25T22:49:32.557Z,0.38
2023-02-25T22:51:59.166Z,0.35
2023-02-25T22:54:25.870Z,0.32
2023-02-25T22:56:52.546Z,0.33
2023-02-25T22:59:19.256Z,0.36
2023-02-25T23:01:45.924Z,0.30
2023-02-25T23:04:12.557Z,0.33
2023-02-25T23:06:44.407Z,0.37
2023-02-25T23:09:13.562Z,0.37
2023-02-25T23:11:42.379Z,0.36
2023-02-25T23:14:09.526Z,0.36
2023-02-25T23:16:41.175Z,0.33
2023-02-25T23:19:10.820Z,0.37
2023-02-25T23:21:41.251Z,0.39
2023-02-25T23:24:09.307Z,0.35
2023-02-25T23:26:40.089Z,0.36
2023-02-25T23:29:08.620Z,0.39
2023-02-25T23:31:38.202Z,0.38
2023-02-25T23:34:08.961Z,0.39
2023-02-25T23:36:37.333Z,0.36
2023-02-25T23:39:05.626Z,0.33
2023-02-25T23:41:35.342Z,0.32
2023-02-25T23:44:02.420Z,0.39
2023-02-25T23:46:31.738Z,0.40
2023-02-25T23:49:00.860Z,0.43
2023-02-25T23:51:28.701Z,0.52
2023-02-25T23:53:57.304Z,0.45
2023-02-25T23:56:25.065Z,0.31
2023-02-25T23:58:53.864Z,0.30
